Date,TemperatureHighF,TemperatureAvgF,TemperatureLowF,DewpointHighF,DewpointAvgF,DewpointLowF,HumidityHigh,HumidityAvg,HumidityLow,PressureMaxIn,PressureMinIn,WindSpeedMaxMPH,WindSpeedAvgMPH,GustSpeedMaxMPH,PrecipitationSumIn
2013-1-1,13.6,4.6,-6.9,9.1,-0.3,-11.1,83,80,73,29.27,29.12,12,4,12,0.00
2013-1-2,19.8,10.2,3.4,15.0,5.6,-1.2,83,81,79,29.13,29.00,16,10,16,0.00
2013-1-3,25.9,13.5,7.3,23.3,9.2,3.1,90,83,79,29.31,29.09,20,11,20,0.00
2013-1-4,28.4,18.2,6.6,22.1,14.3,3.3,88,85,77,29.22,29.14,17,6,17,0.00
2013-1-5,34.2,22.2,13.6,29.8,18.8,10.8,91,87,83,29.18,28.92,22,11,22,0.00
2013-1-6,20.7,14.2,9.3,15.3,10.4,5.9,89,85,79,29.28,28.99,20,9,20,0.00
2013-1-7,36.9,26.9,12.7,28.9,22.2,9.6,88,82,72,29.21,29.02,29,12,29,0.00
2013-1-8,36.3,28.8,19.6,31.9,25.6,17.3,91,88,82,29.04,28.90,24,12,24,0.00
2013-1-9,36.7,30.2,25.5,29.5,25.9,22.3,89,84,73,29.44,29.01,29,11,29,0.00
2013-1-10,40.5,32.4,25.9,33.0,27.4,22.2,93,82,59,29.43,28.79,22,13,22,0.00
2013-1-11,42.3,37.6,34.3,40.9,36.0,32.5,95,94,93,28.79,28.53,29,12,29,0.00
2013-1-12,44.4,23.9,13.6,42.6,18.8,7.4,95,81,75,29.07,28.53,38,16,38,0.00
2013-1-13,13.6,9.4,5.7,7.4,3.8,0.6,83,78,72,29.28,29.01,17,9,17,0.00
2013-1-14,24.4,12.9,3.9,16.0,7.6,0.0,86,79,67,29.43,29.27,22,6,22,0.00
2013-1-15,30.0,19.0,10.8,18.7,12.7,6.8,86,77,61,29.38,29.03,17,10,17,0.00
2013-1-16,40.6,27.7,16.3,33.4,22.8,10.9,91,82,74,29.18,28.82,22,12,22,0.00
2013-1-17,26.4,19.6,11.5,19.7,14.0,6.7,86,79,70,29.42,29.18,18,6,18,0.00
2013-1-18,46.2,34.0,22.8,35.7,28.1,18.9,86,79,65,29.36,28.85,36,16,36,0.00
2013-1-19,42.1,25.7,10.2,33.7,18.9,2.9,87,75,71,29.18,28.81,32,14,32,0.00
2013-1-20,14.0,8.1,3.4,4.7,1.2,-2.1,78,73,63,29.37,29.17,18,8,18,0.00
2013-1-21,5.5,0.4,-3.8,-1.5,-6.5,-10.5,73,72,71,29.25,29.23,24,10,24,0.00
2013-1-30,25.5,19.0,12.4,23.8,16.0,8.5,93,88,85,28.75,28.53,30,15,30,0.00
2013-1-31,12.2,2.7,-4.4,8.5,-1.8,-9.4,85,81,78,29.26,28.75,23,13,23,0.00
2013-2-1,11.1,-0.4,-9.9,7.5,-5.5,-14.4,86,79,72,29.33,29.04,19,10,19,0.00
2013-2-2,17.4,13.0,9.5,11.5,8.6,4.7,88,82,72,29.15,28.97,15,6,15,0.00
2013-2-3,20.3,16.4,8.4,16.7,11.9,4.8,90,83,71,29.10,28.88,23,8,23,0.00
2013-2-4,20.7,16.3,9.3,17.0,11.9,5.2,89,83,74,29.02,28.85,14,6,14,0.00
2013-2-5,34.3,24.6,12.2,29.2,20.6,8.2,89,85,81,29.12,28.78,22,10,22,0.00
2013-2-6,37.8,27.0,11.5,32.5,23.3,8.9,91,86,74,29.16,28.97,28,10,28,0.00
2013-2-7,35.8,32.1,26.2,33.5,29.9,24.0,93,92,90,29.18,28.95,22,10,22,0.00
2013-2-8,34.2,27.5,25.2,27.2,23.6,21.9,91,85,72,29.36,29.18,21,7,21,0.00
2013-2-9,30.7,28.1,25.3,27.9,25.3,22.5,91,89,87,29.31,28.97,30,19,30,0.00
2013-2-10,39.0,34.2,30.0,37.7,32.4,27.8,95,93,90,28.98,28.35,28,17,28,0.00
2013-2-11,32.2,26.6,21.9,30.6,23.4,17.8,94,87,80,29.08,28.40,44,18,44,0.00
2013-2-12,34.5,26.8,21.0,28.8,22.7,16.6,91,84,78,29.11,28.86,21,9,21,0.00
2013-2-13,37.2,28.3,22.3,31.6,25.4,20.3,93,89,79,28.86,28.75,20,5,20,0.00
2013-2-14,36.5,32.3,22.8,32.8,26.9,14.0,90,81,68,29.10,28.63,24,11,24,0.00
2013-2-15,22.8,17.7,12.2,15.2,11.0,6.5,82,75,67,29.29,29.15,22,9,22,0.00
2013-2-16,22.8,15.2,9.1,15.5,9.8,5.0,85,79,71,29.27,29.14,11,4,11,0.00
2013-2-17,32.2,23.3,12.6,24.7,17.9,8.3,86,80,72,29.15,28.75,33,18,33,0.00
2013-2-18,39.9,27.4,10.2,34.1,23.1,5.0,90,84,76,28.79,28.59,29,13,29,0.00
2013-2-19,70.3,6.0,1.2,5.2,1.0,-4.2,85,80,75,29.32,28.79,26,13,26,0.00
2013-2-20,21.7,9.9,0.3,14.2,4.2,-4.7,83,78,72,29.42,29.31,15,6,15,0.00
2013-2-21,23.7,18.1,10.6,21.1,13.4,6.3,91,82,74,29.38,28.94,16,6,16,0.00
2013-2-22,38.8,26.5,21.4,30.9,22.4,18.2,91,85,71,28.95,28.82,12,6,12,0.00
2013-2-23,27.3,19.7,12.0,20.0,15.1,8.3,89,83,71,28.99,28.90,14,7,14,0.00
2013-2-24,34.9,20.6,8.8,26.4,16.1,5.8,89,83,69,29.12,28.99,12,3,12,0.00
2013-2-25,43.5,29.6,23.5,33.1,24.9,19.9,88,83,65,29.13,28.98,10,4,10,0.00
2013-2-26,34.0,30.9,27.7,28.5,26.7,23.7,91,84,79,28.98,28.73,24,10,24,0.00
2013-2-27,35.4,30.9,28.0,30.6,28.0,26.0,92,89,79,28.93,28.75,22,13,22,0.00
2013-2-28,34.7,29.6,26.2,28.4,25.2,22.6,91,84,73,29.16,28.93,19,12,19,0.00
2013-3-1,31.6,25.8,19.9,22.7,19.8,15.5,86,78,65,29.27,29.15,11,7,11,0.00
2013-3-2,26.2,11.1,5.4,17.8,6.5,1.9,86,82,68,29.31,29.23,9,2,9,0.00
2013-3-3,32.5,26.3,12.0,20.8,16.6,7.0,80,67,59,29.16,29.04,14,8,14,0.00
2013-3-4,32.5,26.8,21.4,25.8,21.7,15.7,90,81,70,29.04,28.91,19,10,19,0.00
2013-3-5,36.3,28.1,18.5,29.3,23.9,14.9,91,84,72,29.23,28.94,20,10,20,0.00
2013-3-6,29.1,21.2,7.9,21.8,16.4,4.5,89,82,72,29.38,29.22,22,10,22,0.00
2013-3-7,32.7,16.6,1.9,25.1,12.1,-1.7,89,83,72,29.40,29.33,16,5,16,0.00
2013-3-8,38.3,29.2,18.5,31.5,25.2,15.4,91,85,76,29.37,29.16,25,16,25,0.00
2013-3-9,37.0,35.1,33.4,34.9,32.9,30.5,94,92,89,29.16,28.76,33,19,33,0.00
2013-3-10,37.2,34.8,32.9,35.6,33.3,31.3,95,94,94,28.83,28.66,21,9,21,0.00
2013-3-11,32.9,29.7,23.9,31.3,27.4,21.1,94,91,88,28.89,28.68,15,9,15,0.00
2013-3-12,31.3,24.6,19.9,27.3,20.5,16.1,89,84,76,29.14,28.88,22,10,22,0.00
2013-3-13,28.0,20.8,14.4,19.0,15.4,10.5,86,80,67,29.38,29.14,14,6,14,0.00
2013-3-14,41.0,31.3,20.1,33.6,26.7,17.1,91,83,72,29.26,29.05,21,8,21,0.00
2013-3-15,40.6,33.5,26.8,34.9,30.2,24.3,92,88,80,29.05,28.82,10,3,10,0.00
2013-3-16,33.1,28.7,21.9,31.0,24.8,16.7,94,86,76,29.21,28.83,21,11,21,0.00
2013-3-17,32.5,24.7,16.3,24.9,18.3,11.6,83,77,66,29.22,28.95,22,11,22,0.00
2013-3-18,34.3,24.9,14.9,30.5,21.0,10.9,91,85,78,28.93,28.68,23,16,23,0.00
2013-3-19,25.5,18.7,9.7,15.7,10.9,5.0,86,71,63,29.17,28.87,23,14,23,0.00
2013-3-20,19.8,13.1,7.7,10.5,5.9,1.7,78,73,65,29.21,29.12,28,10,28,0.00
2013-3-21,25.5,15.4,4.1,14.8,8.5,0.0,83,74,62,29.14,29.04,12,4,12,0.00
2013-3-22,34.3,22.5,10.0,22.2,15.3,5.8,84,74,59,29.10,29.04,9,3,9,0.00
2013-3-23,40.6,29.9,19.2,27.1,21.9,15.1,85,73,55,29.15,29.05,10,4,10,0.00
2013-3-24,34.5,30.3,27.3,28.4,25.9,23.9,89,83,77,29.07,28.90,22,9,22,0.00
2013-3-25,35.8,29.5,23.2,27.4,23.7,18.5,87,79,69,29.20,28.93,23,13,23,0.00
2013-3-26,38.3,30.2,23.9,28.7,24.1,19.9,87,79,62,29.31,29.20,12,4,12,0.00
2013-3-27,41.7,32.4,24.4,27.7,24.6,21.5,90,74,53,29.37,29.31,8,1,8,0.00
2013-3-28,49.1,35.7,25.7,34.6,26.8,20.7,85,71,53,29.37,29.30,11,2,11,0.00
2013-3-29,52.3,40.4,31.6,40.1,32.2,25.1,83,73,62,29.35,29.19,14,7,14,0.00
2013-3-30,46.6,40.1,32.5,43.3,36.8,30.7,94,88,81,29.19,28.90,25,12,25,0.00
2013-3-31,42.1,34.4,28.8,38.2,30.1,23.4,95,85,67,29.05,28.86,25,7,25,0.00
2013-4-1,32.7,27.8,22.3,23.8,20.8,17.2,81,75,63,29.26,29.05,22,10,22,0.00
2013-4-2,35.8,29.0,22.5,26.2,22.6,19.2,89,77,63,29.36,29.25,22,6,22,0.00
2013-4-3,43.0,32.5,21.7,28.5,23.8,18.1,88,71,52,29.44,29.26,19,7,19,0.00
2013-4-4,52.0,40.4,30.9,41.4,31.9,23.9,83,72,61,29.26,29.06,18,10,18,0.00
2013-4-5,49.8,38.9,27.5,32.9,29.1,23.1,85,69,47,29.25,28.98,18,7,18,0.00
2013-4-6,58.3,45.7,37.2,48.6,37.6,25.0,91,74,60,28.98,28.55,36,16,36,0.00
2013-4-7,56.5,44.2,35.4,45.3,38.3,32.4,89,80,65,29.01,28.78,48,6,48,0.00
2013-4-8,62.4,51.7,42.1,54.6,46.9,40.2,93,84,75,28.96,28.69,22,7,22,0.00
2013-4-9,45.5,40.7,37.8,42.2,38.7,36.0,95,93,88,29.03,28.84,16,9,16,0.00
2013-4-10,37.8,35.1,32.5,35.9,33.1,30.7,94,93,92,29.12,28.76,27,9,27,0.00
2013-4-11,41.4,37.7,35.1,39.5,35.9,33.1,95,93,92,28.83,28.56,14,7,14,0.00
2013-4-12,36.5,33.9,31.6,34.9,31.0,27.4,95,89,82,28.89,28.58,17,7,19,0.00
2013-4-13,43.3,35.1,30.2,33.6,29.3,26.5,88,80,66,28.99,28.88,20,9,20,0.00
2013-4-14,55.9,42.2,32.5,53.3,39.1,28.5,94,89,79,28.97,28.51,22,8,22,0.00
2013-4-15,48.0,41.4,34.3,45.6,35.3,29.3,93,79,67,29.06,28.66,25,11,25,0.00
2013-4-16,49.8,39.3,30.7,38.5,32.7,27.6,89,78,61,29.29,29.04,17,7,17,0.00
2013-4-17,41.4,39.8,37.6,39.7,36.3,32.9,95,88,76,29.28,28.70,23,7,23,0.00
2013-4-18,43.5,38.6,32.7,42.2,37.1,30.9,95,94,92,28.75,28.42,24,10,24,0.00
2013-4-19,37.0,33.4,30.7,31.5,29.1,27.2,93,84,74,29.01,28.53,31,15,31,0.00
2013-4-20,43.0,32.3,26.4,28.9,26.6,23.9,91,80,54,29.29,29.01,10,4,10,0.00
2013-4-21,56.8,44.5,34.5,45.7,37.8,29.1,90,77,66,29.36,29.14,30,18,30,0.00
2013-4-22,59.5,50.7,45.0,51.0,46.4,42.8,92,85,70,29.22,28.97,21,13,21,0.00
2013-4-23,42.6,36.3,32.2,40.1,31.6,27.2,91,83,72,29.10,29.01,22,14,22,0.00
2013-4-24,51.6,43.1,28.0,36.7,32.4,25.3,90,68,45,29.12,28.99,25,11,25,0.00
2013-4-25,54.3,40.8,30.7,33.8,30.3,25.4,88,69,35,29.28,29.07,22,10,22,0.00
2013-4-26,70.0,54.1,37.9,49.7,41.9,31.5,85,65,44,29.25,29.14,29,16,29,0.00
2013-4-27,69.8,54.7,41.5,52.1,46.1,39.4,93,75,51,29.25,29.04,20,9,20,0.00
2013-4-28,75.6,58.1,41.2,52.0,46.7,37.9,91,68,42,29.05,28.81,18,8,18,0.00
2013-4-29,75.4,61.5,52.5,59.9,54.1,47.3,92,78,58,28.88,28.66,23,8,23,0.00
2013-4-30,81.3,68.4,55.2,61.9,56.5,45.0,92,68,47,28.97,28.63,33,12,33,0.00
2013-5-1,59.2,50.7,39.4,48.1,43.2,34.6,88,76,63,29.34,28.95,18,4,18,0.00
2013-5-2,39.2,34.5,32.2,34.6,31.9,30.1,93,90,83,29.41,29.29,13,3,13,0.00
2013-5-3,36.7,33.6,31.6,35.1,31.7,29.4,94,93,91,29.32,29.01,4,0,4,0.00
2013-5-4,67.1,50.0,36.5,60.5,47.2,34.9,96,90,77,29.10,28.98,5,0,5,0.00
2013-5-5,71.2,56.3,42.6,57.2,49.1,40.5,93,78,54,29.12,29.05,5,0,5,0.00
2013-5-6,77.7,61.3,46.6,56.4,49.8,44.1,92,69,39,29.14,29.04,7,0,7,0.00
2013-5-7,82.0,64.6,48.7,54.5,48.0,43.2,87,58,32,29.12,29.02,9,0,9,0.00
2013-5-8,79.5,65.7,53.2,56.2,50.2,42.2,88,59,39,29.07,28.99,19,4,19,0.00
2013-5-9,61.2,57.6,52.9,59.1,55.2,50.6,94,92,83,29.00,28.88,14,1,14,0.00
2013-5-10,63.3,53.7,44.4,53.6,48.1,42.3,94,82,64,29.07,28.95,6,1,6,0.00
2013-5-11,53.8,47.8,37.4,47.5,35.2,25.2,90,63,38,29.16,28.93,28,10,28,0.00
2013-5-12,58.8,44.8,32.5,32.3,29.1,26.8,79,56,35,29.25,29.14,20,3,20,0.00
2013-5-13,69.6,54.7,37.2,46.9,36.6,25.5,72,53,32,29.19,28.86,22,8,22,0.00
2013-5-14,95.5,73.8,53.8,60.1,53.6,46.1,82,53,27,28.87,28.61,27,9,27,0.00
2013-5-15,77.4,66.9,55.2,50.9,46.9,44.0,72,50,34,28.98,28.72,10,1,10,0.00
2013-5-16,85.6,70.1,55.0,52.4,48.3,43.0,69,48,29,29.00,28.89,19,2,19,0.00
2013-5-17,79.2,65.5,52.7,63.0,55.9,48.9,89,72,56,29.05,28.92,20,2,20,0.00
2013-5-18,81.0,69.1,54.5,65.8,59.2,50.2,86,72,56,29.05,28.88,20,8,20,0.00
2013-5-19,81.9,71.0,61.9,72.1,64.7,58.2,93,81,67,28.91,28.63,32,14,34,0.00
2013-5-20,77.2,67.0,59.7,63.4,60.2,56.2,95,80,57,28.77,28.63,25,9,25,0.00
2013-5-21,67.6,62.5,58.3,59.8,56.5,53.8,93,81,66,28.73,28.61,16,6,16,0.00
2013-5-22,68.4,61.0,55.2,57.7,55.1,52.7,93,81,66,28.86,28.69,7,2,7,0.00
2013-5-23,65.5,56.5,49.3,53.2,47.2,40.2,93,73,48,29.33,28.86,6,1,6,0.00
2013-5-24,69.1,55.7,43.0,47.4,42.6,37.2,84,64,39,29.45,29.27,20,6,20,0.00
2013-5-25,54.9,51.2,48.6,49.1,47.0,44.1,91,85,78,29.35,29.27,21,6,21,0.00
2013-5-26,55.2,50.0,45.1,51.9,46.7,42.0,94,89,82,29.28,29.07,29,1,29,0.00
2013-5-27,59.9,55.9,52.7,58.5,54.4,51.0,96,95,93,29.10,28.84,11,0,11,0.00
2013-5-28,75.6,63.4,53.4,68.3,60.6,52.3,96,91,78,28.86,28.71,13,2,13,0.00
2013-5-29,80.1,66.4,59.4,70.5,62.6,57.1,95,88,72,28.90,28.76,21,8,21,0.00
2013-5-30,75.9,67.6,61.5,68.5,63.9,59.2,95,88,72,28.81,28.62,32,16,32,0.00
2013-5-31,74.7,67.0,60.1,65.5,61.6,58.1,94,84,66,28.76,28.67,26,14,26,0.00
2013-6-1,68.4,63.8,57.7,62.1,57.0,53.1,94,79,65,28.88,28.66,12,4,12,0.00
2013-6-2,63.0,54.9,46.9,53.2,45.8,42.0,88,72,54,29.10,28.88,11,1,11,0.00
2013-6-3,72.7,59.8,47.5,50.5,46.0,41.6,82,62,43,29.14,29.03,9,1,9,0.00
2013-6-4,58.8,56.1,52.2,54.2,50.7,48.6,91,83,73,29.20,29.08,21,5,21,0.00
2013-6-5,61.9,56.9,53.2,59.7,54.6,51.0,94,92,86,29.10,28.97,10,2,10,0.00
2013-6-6,64.9,58.4,55.6,59.8,55.7,53.2,96,91,82,29.02,28.94,3,0,3,0.00
2013-6-7,66.6,59.0,54.3,58.1,54.4,52.3,94,85,71,29.06,28.97,0,0,0,0.00
2013-6-8,71.2,63.1,54.3,59.0,55.1,50.8,89,76,59,29.00,28.93,14,3,14,0.00
2013-6-9,70.3,63.8,59.4,63.9,58.0,52.0,92,82,73,28.94,28.80,20,7,20,0.00
2013-6-10,76.1,66.0,59.7,63.3,60.3,58.0,94,83,63,28.93,28.82,4,0,4,0.00
2013-6-11,86.4,72.9,59.2,68.3,63.2,56.6,92,73,51,28.96,28.84,17,4,17,0.00
2013-6-12,82.2,71.6,65.7,73.7,67.4,63.2,94,87,74,28.97,28.68,19,2,19,0.00
2013-6-13,77.4,68.8,60.1,63.6,59.7,56.7,94,75,52,29.10,28.86,17,1,17,0.00
2013-6-14,63.1,63.0,62.8,57.0,56.9,56.8,81,81,80,29.09,29.08,0,0,0,0.00
2013-6-15,77.9,73.3,62.8,69.0,67.0,59.6,94,81,73,29.05,28.88,17,4,17,0.00
2013-6-16,84.0,74.0,63.3,67.5,57.7,50.2,94,62,32,29.00,28.93,8,1,8,0.00
2013-6-17,85.6,74.7,63.5,60.0,55.8,53.4,71,54,34,29.01,28.93,10,0,10,0.00
2013-6-18,76.3,67.0,59.5,60.3,57.1,53.4,89,71,55,29.14,28.99,5,0,5,0.00
2013-6-19,81.7,70.0,57.6,61.3,56.8,51.6,84,65,45,29.17,29.05,18,6,18,0.00
2013-6-20,87.8,73.5,63.1,65.6,60.5,56.1,79,65,46,29.13,29.05,24,11,24,0.00
2013-6-21,82.0,72.7,62.2,72.2,66.7,60.1,94,82,69,29.08,28.94,21,10,21,0.00
2013-6-22,86.4,74.9,64.6,76.9,69.9,62.5,93,85,73,29.06,28.86,22,7,22,0.00
2013-6-23,80.1,72.1,65.8,69.7,65.9,61.7,90,81,65,29.02,28.86,21,5,21,0.00
2013-6-24,75.4,68.4,64.2,70.0,65.3,61.9,93,90,81,29.06,28.88,24,7,24,0.00
2013-6-25,81.7,73.2,64.9,75.2,69.9,63.2,95,90,79,28.94,28.79,17,4,17,0.00
2013-6-26,84.9,74.1,67.3,76.1,69.1,63.9,93,85,68,28.88,28.72,16,4,16,0.00
2013-6-27,85.6,76.1,66.2,70.9,63.2,54.8,89,67,37,28.91,28.86,20,2,20,0.00
2013-6-28,77.7,70.8,64.2,61.7,59.7,57.5,85,69,52,28.88,28.76,15,3,15,0.00
2013-6-29,70.7,64.8,62.2,64.0,60.5,57.9,93,86,74,28.95,28.75,13,2,13,0.00
2013-6-30,74.5,65.9,56.5,58.0,54.3,52.0,87,68,48,29.12,28.94,9,2,9,0.00
2013-7-1,78.1,68.3,55.8,59.8,54.5,51.8,89,64,43,29.20,29.12,4,0,4,0.00
2013-7-2,80.4,70.4,60.6,61.9,57.6,53.4,80,65,44,29.17,29.08,5,0,5,0.00
2013-7-3,78.1,67.5,57.0,58.4,54.5,50.2,81,64,47,29.14,29.04,10,2,10,0.00
2013-7-4,83.5,71.8,59.2,61.2,57.3,51.4,83,62,43,29.10,29.01,14,6,14,0.00
2013-7-5,84.9,74.2,61.7,63.4,60.1,56.5,84,63,45,29.08,28.99,21,9,21,0.00
2013-7-6,87.6,75.6,64.8,67.9,64.0,60.2,86,69,50,29.04,28.98,18,10,18,0.00
2013-7-7,88.0,78.6,67.8,70.6,67.5,63.8,87,70,53,28.99,28.94,18,9,18,0.00
2013-7-8,88.3,81.8,71.2,74.9,72.8,68.7,93,75,61,29.03,28.95,9,0,9,0.00
2013-7-9,85.5,77.7,71.2,76.6,72.6,68.4,94,85,72,29.04,28.92,14,4,14,0.00
2013-7-10,77.5,71.2,64.9,69.3,60.8,55.8,92,71,51,29.10,28.96,5,1,5,0.00
2013-7-11,82.2,71.0,60.3,63.5,59.2,55.0,87,68,51,29.17,29.10,11,2,11,0.00
2013-7-12,82.2,71.4,60.3,62.7,59.0,55.4,85,67,48,29.17,29.07,21,10,21,0.00
2013-7-13,75.0,67.9,62.4,64.8,60.4,56.7,89,77,65,29.18,29.08,19,7,19,0.00
2013-7-14,85.1,74.1,62.8,69.5,64.2,58.5,88,72,52,29.26,29.15,16,6,16,0.00
2013-7-15,87.4,72.7,68.7,72.9,66.7,63.3,88,82,62,29.27,29.24,7,1,7,0.00
2013-7-20,84.0,80.5,76.8,66.4,66.1,65.2,67,61,55,29.00,28.98,0,0,0,0.00
2013-7-21,82.8,72.6,65.3,68.3,64.0,60.7,86,75,60,28.98,28.90,11,4,11,0.00
2013-7-22,85.6,74.2,64.2,74.5,66.7,60.8,93,78,59,28.92,28.74,11,6,11,0.00
2013-7-23,74.5,68.3,59.5,61.4,56.2,53.0,85,66,53,29.05,28.84,4,1,4,0.00
2013-7-24,74.1,69.5,59.7,57.9,56.0,53.2,79,62,53,29.12,29.05,7,1,7,0.00
2013-7-25,82.2,64.4,57.6,65.6,58.2,53.4,92,81,54,29.09,29.02,17,6,17,0.00
2013-7-26,72.3,67.8,57.0,66.1,57.6,51.5,94,70,60,29.05,28.98,12,1,12,0.00
2013-7-27,62.4,55.3,48.0,52.2,47.7,45.2,91,76,60,29.08,29.01,5,0,5,0.00
2013-7-28,68.2,63.2,58.6,53.4,51.8,50.0,75,67,57,29.11,29.04,0,0,0,0.00
2013-7-29,74.1,57.2,52.2,57.4,51.0,47.8,88,80,56,29.20,29.10,2,0,2,0.00
2013-7-30,72.3,67.2,64.2,64.1,61.9,61.0,90,83,75,29.15,29.10,10,3,10,0.00
2013-7-31,75.9,63.5,61.2,65.9,60.8,58.6,93,91,69,29.14,29.09,4,0,4,0.00
2013-8-1,78.4,78.4,78.4,59.5,59.5,59.5,52,52,52,29.03,29.03,0,0,0,0.00
2013-8-2,73.0,69.7,67.1,60.7,59.3,58.3,73,69,65,29.04,28.95,2,0,2,0.00
2013-8-3,76.6,70.7,59.7,59.0,55.3,53.8,87,59,47,29.20,29.06,0,0,0,0.00
2013-8-4,72.1,69.7,65.5,57.5,56.9,55.8,71,64,60,29.25,29.14,1,1,1,0.00
2013-8-5,73.9,65.5,59.4,69.5,62.3,55.0,94,89,82,29.11,28.88,17,8,17,0.00
2013-8-6,81.7,72.8,64.2,73.8,68.8,62.5,95,88,68,28.94,28.86,7,1,7,0.00
2013-8-7,73.2,72.2,69.6,64.2,63.2,62.5,83,73,69,28.97,28.93,2,2,2,0.00
2013-8-8,76.6,69.6,55.9,63.2,59.4,52.4,90,71,61,29.07,29.03,101,5,101,0.00
2013-8-9,71.4,66.6,62.8,64.5,61.5,56.1,88,84,77,29.14,29.06,0,0,0,0.00
2013-8-10,73.4,65.9,55.0,61.6,57.9,50.6,86,76,65,29.21,29.14,4,1,4,0.00
2013-8-11,74.8,67.4,62.4,67.1,62.0,58.4,89,83,74,29.16,29.05,10,3,10,0.00
2013-8-12,76.5,68.2,61.0,66.4,60.3,55.6,94,78,56,29.08,29.02,4,1,4,0.00
2013-8-13,70.3,62.9,54.7,57.2,52.6,48.4,91,71,52,29.23,29.08,2,0,2,0.00
2013-8-14,73.0,65.1,52.0,55.3,52.4,47.3,85,65,52,29.27,29.18,2,0,2,0.00
2013-8-15,69.4,67.6,64.9,56.8,56.3,56.0,73,67,62,29.20,29.19,0,0,0,0.00
2013-8-16,69.1,63.1,54.9,59.9,54.6,51.1,87,74,63,29.24,29.18,0,0,0,0.00
2013-8-17,81.1,71.7,56.7,62.7,58.8,50.3,82,65,51,29.28,29.18,7,2,7,0.00
2013-8-18,78.1,68.0,58.6,62.5,57.6,52.5,84,70,55,29.25,29.12,54,5,54,0.00
2013-8-19,78.6,66.4,58.3,66.3,58.9,53.5,86,78,63,29.13,29.04,12,6,12,0.00
2013-8-20,83.8,73.2,63.1,70.9,65.7,59.6,90,78,64,29.07,29.00,20,10,20,0.00
2013-8-21,85.6,75.8,67.8,73.2,68.0,63.5,88,78,63,29.03,29.01,12,6,13,0.00
2013-8-22,78.4,71.4,65.1,71.2,67.4,63.1,94,88,76,29.13,29.10,10,3,10,0.00
2013-8-23,80.2,70.2,61.3,71.1,65.3,59.3,94,85,69,29.21,29.14,14,5,14,0.00
2013-8-24,83.3,74.9,62.1,74.4,68.0,56.1,85,79,74,29.23,29.14,17,11,17,0.00
2013-8-25,86.2,78.9,68.7,74.4,70.9,65.3,89,77,65,29.20,29.12,17,8,17,0.00
2013-8-26,71.4,71.2,71.1,63.8,63.6,63.4,77,77,77,29.12,29.12,8,7,8,0.00
2013-8-27,88.2,79.8,70.9,75.6,73.3,67.5,89,81,65,28.98,28.91,8,1,8,0.00
2013-8-28,83.3,77.3,72.7,77.3,73.5,69.9,93,88,81,29.08,28.95,6,0,6,0.00
2013-8-29,89.4,78.8,70.3,77.1,72.6,67.9,93,82,62,29.09,28.98,12,6,12,0.00
2013-8-30,90.1,79.3,72.7,79.4,73.7,67.9,93,83,67,28.99,28.87,11,2,11,0.00
2013-8-31,83.5,74.3,67.8,72.5,68.3,65.1,92,82,67,28.92,28.84,32,1,32,0.00
2013-9-1,78.6,70.4,60.1,71.2,63.4,55.7,93,80,59,28.97,28.81,11,2,11,0.00
2013-9-2,67.1,59.4,52.3,55.8,53.3,48.2,93,81,67,29.09,28.96,4,0,4,0.00
2013-9-3,74.5,60.5,45.7,58.1,52.4,43.4,93,76,54,29.16,29.07,8,0,8,0.00
2013-9-4,84.2,69.5,55.6,69.6,60.2,51.1,85,73,59,29.17,29.08,5,1,5,0.00
2013-9-5,80.4,71.9,64.6,71.4,66.5,61.4,92,83,73,29.26,29.16,58,1,58,0.00
2013-9-6,85.1,72.7,60.4,67.8,62.9,56.6,88,73,53,29.20,28.99,16,8,16,0.00
2013-9-7,85.8,74.6,65.7,73.6,66.8,59.7,89,77,64,29.01,28.90,20,2,20,0.00
2013-9-8,75.2,70.8,67.3,69.6,66.1,63.2,91,85,76,29.07,28.95,8,0,8,0.00
2013-9-9,93.6,77.8,66.0,75.3,67.8,63.7,94,74,45,28.95,28.82,13,4,13,0.00
2013-9-10,91.9,77.8,66.9,69.6,64.9,60.6,80,66,46,29.07,28.89,9,2,9,0.00
2013-9-11,81.9,71.3,62.8,68.9,63.3,57.7,93,77,58,29.12,29.04,9,1,9,0.00
2013-9-12,65.7,60.1,55.0,57.9,54.3,50.6,86,81,74,29.16,29.07,2,0,2,0.00
2013-9-13,64.6,58.5,46.0,49.2,46.8,42.6,89,66,55,29.30,29.16,4,0,4,0.00
2013-9-14,73.0,58.7,44.2,49.8,45.6,39.1,83,64,42,29.19,28.94,14,7,14,0.00
2013-9-15,63.1,57.4,54.0,56.7,53.1,49.4,92,86,74,29.28,28.92,17,2,17,0.00
2013-9-16,63.3,55.7,47.8,54.4,49.3,44.1,93,80,62,29.41,29.28,7,0,7,0.00
2013-9-17,62.2,54.5,46.6,59.2,51.1,43.7,91,88,80,29.33,29.05,18,6,18,0.00
2013-9-18,63.3,62.3,61.7,61.3,59.9,58.8,93,92,89,29.06,28.95,17,10,17,0.00
2013-9-19,81.9,72.7,65.8,71.2,67.5,63.6,93,84,67,28.86,28.77,11,6,11,0.00
2013-9-20,65.5,57.8,50.2,63.4,53.0,46.7,93,84,70,28.97,28.86,5,0,5,0.00
2013-9-21,64.6,53.5,43.3,50.5,46.7,41.2,93,79,60,29.03,28.95,2,0,2,0.00
2013-9-22,70.3,57.2,45.7,55.6,49.5,43.0,91,77,58,29.07,28.97,19,6,19,0.00
2013-9-23,71.2,61.1,48.6,54.4,50.9,44.9,90,71,52,29.07,28.97,22,9,22,0.00
2013-9-24,72.0,59.3,48.2,57.9,51.3,45.2,90,76,58,29.02,28.95,10,1,10,0.00
2013-9-25,71.4,59.2,48.0,56.6,51.5,45.3,91,77,57,29.03,28.94,9,0,9,0.00
2013-9-26,79.9,64.4,50.9,62.4,55.4,47.6,89,74,54,29.04,28.97,21,8,21,0.00
2013-9-27,80.8,67.8,57.0,64.5,57.0,50.7,81,69,53,29.08,28.97,23,12,23,0.00
2013-9-28,70.0,61.7,55.6,62.5,57.2,53.3,92,85,72,28.99,28.84,24,8,24,0.00
2013-9-29,69.8,61.0,44.8,50.9,47.3,42.4,92,63,45,29.10,28.97,18,7,18,0.00
2013-9-30,73.0,59.4,48.6,52.5,48.4,43.9,87,69,44,28.99,28.79,23,11,23,0.00
2013-10-1,78.6,65.9,57.6,58.7,52.9,42.4,91,66,36,29.04,28.82,15,4,15,0.00
2013-10-2,77.9,64.4,52.0,57.5,46.8,39.6,77,54,35,29.12,28.93,17,3,17,0.00
2013-10-3,75.6,67.0,61.2,68.0,62.0,57.0,92,84,70,28.94,28.82,20,5,20,0.00
2013-10-4,69.6,64.4,59.5,65.5,61.7,56.7,93,91,85,28.97,28.84,13,2,13,0.00
2013-10-5,68.4,60.8,50.4,65.6,51.0,40.6,92,71,58,28.86,28.82,20,6,20,0.00
2013-10-6,47.7,46.3,45.1,42.7,41.5,40.2,86,83,78,28.82,28.75,4,1,4,0.00
2013-10-7,60.6,53.4,47.3,48.0,45.3,42.2,91,75,55,29.09,28.84,7,2,7,0.00
2013-10-8,75.7,59.7,45.7,49.9,45.1,41.8,87,62,34,29.12,29.03,22,9,22,0.00
2013-10-9,72.9,60.2,48.7,52.6,47.0,43.6,85,64,38,29.18,29.09,18,9,18,0.00
2013-10-10,58.5,49.8,46.2,51.4,44.3,41.4,85,81,77,29.15,29.13,9,5,9,0.00
2013-10-11,74.1,63.7,53.2,59.2,54.0,48.8,89,72,53,28.99,28.83,25,14,25,0.00
2013-10-12,65.5,57.1,47.1,56.4,42.3,32.7,79,59,36,29.24,28.84,13,6,13,0.00
2013-10-13,60.4,46.6,36.7,40.9,33.6,29.9,78,61,39,29.45,29.25,0,0,0,0.00
2013-10-14,64.6,51.5,38.5,43.9,38.7,32.6,80,63,41,29.42,29.00,22,4,22,0.00
2013-10-15,55.9,50.1,46.0,53.6,45.1,41.9,92,83,73,29.01,28.81,22,10,22,0.00
2013-10-16,49.1,46.3,42.4,45.2,43.5,39.7,93,90,84,29.00,28.82,17,2,17,0.00
2013-10-17,57.4,47.3,40.6,43.2,39.2,35.7,92,75,50,28.97,28.84,10,1,10,0.00
2013-10-18,51.8,44.4,37.0,41.1,35.3,28.9,89,71,50,29.02,28.88,17,2,17,0.00
2013-10-19,49.3,39.6,32.2,40.0,34.1,27.6,90,81,68,28.95,28.77,15,3,15,0.00
2013-10-20,54.5,41.3,29.1,44.8,35.4,25.7,89,80,66,28.90,28.71,21,5,21,0.00
2013-10-21,41.5,36.3,29.8,32.9,26.5,22.4,84,68,53,29.03,28.90,16,3,16,0.00
2013-10-22,44.2,34.4,27.5,30.6,26.6,21.4,83,73,57,29.05,28.94,4,0,4,0.00
2013-10-23,40.8,34.2,27.5,32.1,26.3,21.1,88,74,56,29.10,29.03,10,1,10,0.00
2013-10-24,41.7,35.1,30.4,28.1,24.3,21.1,73,65,51,29.36,29.10,13,0,13,0.00
2013-10-25,51.8,40.1,27.0,33.1,28.7,22.9,87,66,42,29.38,28.95,22,6,22,0.00
2013-10-26,49.6,42.3,33.6,33.8,30.5,25.5,78,63,48,29.13,28.88,19,6,19,0.00
2013-10-27,57.4,40.8,27.0,34.6,29.2,22.7,86,66,42,29.10,28.90,18,5,18,0.00
2013-10-28,45.7,39.5,35.4,34.2,31.5,29.0,82,73,62,29.37,29.03,0,0,4,0.00
2013-10-29,56.8,45.6,36.7,41.6,36.2,29.8,78,70,54,29.37,29.09,18,2,18,0.00
2013-10-30,58.6,51.6,48.9,55.1,47.6,40.9,93,86,73,29.09,28.69,25,11,25,0.00
2013-10-31,57.0,45.1,39.0,55.0,42.6,36.3,93,91,89,28.70,28.45,16,4,17,0.00
2013-11-1,50.4,42.6,36.5,41.7,37.6,32.3,90,83,66,28.84,28.47,15,3,15,0.00
2013-11-2,48.0,39.8,31.8,35.1,31.5,26.9,90,73,55,29.16,28.83,14,3,14,0.00
2013-11-3,52.2,40.9,30.4,38.9,32.8,26.4,88,74,57,29.23,29.03,35,16,35,0.00
2013-11-4,46.9,44.3,39.0,43.9,39.5,33.8,92,84,71,29.19,28.99,27,13,27,0.00
2013-11-5,53.4,42.2,33.6,51.7,40.2,31.5,94,92,90,29.25,28.81,23,2,23,0.00
2013-11-6,46.2,36.5,27.5,44.6,30.9,22.5,94,81,53,29.24,28.80,19,4,19,0.00
2013-11-7,44.1,33.0,25.5,34.9,27.9,21.6,89,82,68,29.27,29.21,19,5,19,0.00
2013-11-8,47.5,36.0,23.5,37.3,29.1,20.7,90,77,55,29.28,28.76,32,12,32,0.00
2013-11-9,50.2,42.0,33.1,41.1,35.3,27.1,86,77,65,29.22,28.77,72,9,72,0.00
2013-11-10,46.9,37.4,30.2,33.3,30.1,26.0,85,75,58,29.39,29.13,15,5,15,0.00
2013-11-11,41.5,28.0,13.3,34.2,22.2,8.2,88,78,73,29.66,29.09,37,3,37,0.00
2013-11-12,24.4,15.7,7.3,16.5,10.5,3.5,86,80,69,29.79,29.56,14,3,37,0.00
2013-11-13,42.8,28.8,14.7,28.7,19.5,10.2,83,69,53,29.56,29.04,25,15,25,0.00
2013-11-14,48.0,37.1,28.6,32.0,27.1,20.7,79,67,53,29.04,28.88,18,10,18,0.00
2013-11-15,53.4,38.8,26.8,41.7,32.4,22.8,87,78,63,28.94,28.80,17,8,17,0.00
2013-11-16,56.5,46.7,36.3,54.3,44.1,32.5,93,91,84,28.81,28.34,27,16,27,0.00
2013-11-17,49.3,41.3,35.2,47.6,38.2,31.4,94,89,84,28.87,28.35,21,9,21,0.00
2013-11-18,37.6,32.8,25.9,32.3,26.9,21.6,86,79,67,29.28,28.87,24,7,24,0.00
2013-11-19,42.1,36.8,22.6,32.9,29.8,19.5,89,76,68,29.31,29.10,27,18,27,0.00
2013-11-20,36.5,35.4,34.3,34.2,31.5,28.9,92,86,77,29.11,28.99,26,17,26,0.00
2013-11-21,40.5,35.1,28.6,38.6,33.2,26.6,93,93,92,29.38,29.06,10,1,10,0.00
2013-11-22,28.6,24.4,19.9,26.6,21.8,16.7,92,89,87,29.55,29.38,0,0,0,0.00
2013-11-23,19.9,11.3,4.8,15.8,5.1,0.2,85,76,69,29.78,29.49,15,2,15,0.00
2013-11-24,24.1,13.9,2.5,13.1,7.5,-1.4,86,76,59,29.72,29.21,23,11,23,0.00
2013-11-25,32.7,27.7,19.2,28.0,23.1,12.5,90,83,70,29.21,29.03,23,13,23,0.00
2013-11-26,31.8,22.4,8.2,26.5,14.3,1.9,81,71,58,29.31,29.07,24,11,24,0.00
2013-11-27,23.5,13.9,4.6,14.9,7.8,0.2,84,77,66,29.36,29.11,17,5,17,0.00
2013-11-28,30.0,19.4,10.0,20.7,13.1,5.8,84,77,64,29.51,29.08,16,4,16,0.00
2013-11-29,31.8,21.9,11.7,24.6,16.9,7.7,86,81,73,29.55,29.24,21,9,21,0.00
2013-11-30,40.8,30.8,22.8,32.8,25.9,19.5,88,82,72,29.24,29.04,18,8,18,0.00
2013-12-1,40.1,31.3,22.6,31.9,26.8,19.6,90,84,72,29.18,28.96,7,0,7,0.00
2013-12-2,39.4,33.4,27.1,34.6,30.4,24.2,91,89,83,28.97,28.66,22,10,22,0.00
2013-12-3,37.9,35.8,34.7,36.0,33.8,32.8,94,93,91,28.68,28.62,10,4,10,0.00
2013-12-4,44.2,33.8,25.2,42.6,32.0,22.1,95,93,88,28.81,28.46,25,14,25,0.00
2013-12-5,25.0,13.8,6.1,21.6,8.8,1.5,88,80,75,29.34,28.80,25,13,25,0.00
2013-12-6,13.1,5.7,-0.2,6.3,0.5,-4.7,82,79,71,29.61,29.32,16,5,16,0.00
2013-12-7,10.9,3.8,-3.8,3.3,-1.9,-8.0,83,77,68,29.73,29.55,8,1,8,0.00
2013-12-8,18.1,13.6,9.5,13.7,8.6,2.2,87,81,71,29.56,28.99,10,2,10,0.00
2013-12-9,13.6,1.9,-8.5,10.8,-2.5,-12.9,88,82,74,29.21,28.98,19,6,19,0.00
2013-12-10,15.3,10.3,-4.2,12.0,5.6,-8.4,87,81,74,29.23,28.87,23,13,23,0.00
2013-12-11,15.8,2.3,-5.4,12.3,-3.1,-10.4,87,78,70,29.56,29.23,15,5,15,0.00
2013-12-12,19.2,9.3,-4.2,13.1,4.4,-8.6,87,80,76,29.45,29.14,23,9,23,0.00
2013-12-13,22.3,15.4,11.8,16.8,11.8,8.7,88,86,79,29.14,29.06,8,3,10,0.00
2013-12-14,23.4,16.9,9.1,18.4,13.0,4.7,90,85,79,29.15,29.06,19,7,19,0.00
2013-12-15,12.4,7.2,1.8,5.0,1.5,-2.8,82,77,70,29.12,29.06,17,2,17,0.00
2013-12-16,19.2,14.2,7.9,16.5,10.5,3.8,90,85,80,29.11,29.01,11,6,11,0.00
2013-12-17,30.4,22.0,13.1,25.8,17.8,8.9,91,84,74,29.16,28.98,18,8,18,0.00
2013-12-18,37.2,25.4,11.8,30.8,20.9,8.4,88,83,72,29.15,28.75,25,9,25,0.00
2013-12-19,31.8,27.1,3.2,28.1,23.3,0.1,92,86,78,28.94,28.80,3,0,3,0.00
2013-12-20,26.4,22.2,20.8,24.2,19.8,18.5,92,90,89,28.92,28.83,0,0,0,0.00
2013-12-21,26.2,23.8,21.7,24.5,21.6,19.5,93,91,90,28.91,28.78,0,0,0,0.00
2013-12-22,25.5,18.7,1.9,23.8,15.7,-1.9,93,88,83,29.22,28.79,14,2,14,0.00
2013-12-23,1.9,-4.1,-11.4,-1.9,-8.7,-15.9,84,81,76,29.49,29.22,22,4,22,0.00
2013-12-24,9.7,-2.5,-14.3,6.4,-7.1,-18.8,87,80,75,29.50,29.20,23,9,23,0.00
2013-12-25,18.5,13.9,9.7,16.0,11.1,6.5,90,88,87,29.20,29.15,16,8,16,0.00